Αναφορές Αεροδρομίων

 

KSJC - San Jose, California, USA
Distance from station: ΒΑ 14km
Ενημερώθηκε: 24/02/2024 23:53
Few Clouds
Few Clouds
 Ανεμος από varies
Ανεμος: varies 7 km/h
Θερμοκρασία: 23°C
Σημείο Δρόσου: 5°C
Υγρασία: 31%
Βαρόμετρο: 1015.9 hPa
Clouds: Few Clouds
Visibility: 16 km
Cloud details: Few Clouds 2743 m
Few Clouds 4572 m
Few Clouds 7620 m
2024/02/24 21:53 KSJC 242153Z VRB04KT 10SM FEW090 FEW150 FEW250 23/05 A3000 RMK AO2 SLP159 T02330050
KNUQ - Moffett Nas/Mtn, California, USA
Distance from station: Β 14km
Ενημερώθηκε: 24/02/2024 23:55
Αίθριος
Αίθριος
 Ανεμος από varies
Ανεμος: varies 7 km/h
Θερμοκρασία: 21°C
Σημείο Δρόσου: 7°C
Υγρασία: 40%
Βαρόμετρο: 1016.3 hPa
Clouds: Αίθριος
Visibility: 16 km
2024/02/24 21:55 KNUQ 242155Z AUTO VRB04KT 10SM CLR 21/07 A3001 RMK AO2
 
KPAO - Palo Alto, California, USA
Distance from station: ΒΒΔ 23km
Ενημερώθηκε: 24/02/2024 23:47
Few Clouds
Few Clouds
 Ανεμος από varies
Ανεμος: varies 7 km/h
Θερμοκρασία: 19°C
Σημείο Δρόσου: 11°C
Υγρασία: 60%
Βαρόμετρο: 1016.6 hPa
Clouds: Few Clouds
Visibility: 16 km
Cloud details: Few Clouds 1829 m
2024/02/24 21:47 KPAO 242147Z VRB04KT 10SM FEW060 19/11 A3002
KRHV - San Jose/Reid, California, USA
Distance from station: ΑΒΑ 19km
Ενημερώθηκε: 24/02/2024 23:47
Few Clouds
Few Clouds
 Ανεμος από Β
Ανεμος: Β 6 km/h
Θερμοκρασία: 23°C
Σημείο Δρόσου: 6°C
Υγρασία: 33%
Βαρόμετρο: 1016.3 hPa
Clouds: Few Clouds
Visibility: 16 km
Cloud details: Few Clouds 3048 m
2024/02/24 21:47 KRHV 242147Z 36003KT 10SM FEW100 23/06 A3001
 
KOAK - Oakland, California, USA
Distance from station: ΒΒΔ 50km
Ενημερώθηκε: 24/02/2024 23:53
Few Clouds
Few Clouds
 Ανεμος από ΝΔ
Ανεμος: ΝΔ 13 km/h
Θερμοκρασία: 18°C
Σημείο Δρόσου: 8°C
Υγρασία: 52%
Βαρόμετρο: 1016.9 hPa
Clouds: Few Clouds
Visibility: 16 km
Cloud details: Few Clouds 4572 m
Few Clouds 6096 m
2024/02/24 21:53 KOAK 242153Z 23007KT 10SM FEW150 FEW200 18/08 A3003 RMK AO2 SLP169 T01780083
KSQL - San Carlos Airpo, California, USA
Distance from station: ΒΔ 34km
Ενημερώθηκε: 24/02/2024 23:50
Αίθριος
Αίθριος
 Ανεμος από varies
Ανεμος: varies 6 km/h
Θερμοκρασία: 19°C
Σημείο Δρόσου: 9°C
Υγρασία: 52%
Βαρόμετρο: 1016.9 hPa
Clouds: Αίθριος
Visibility: 16 km
2024/02/24 21:50 KSQL 242150Z VRB03KT 10SM CLR 19/09 A3003
 
KSFO - San Francisco, California, USA
Distance from station: ΒΔ 49km
Ενημερώθηκε: 24/02/2024 23:56
Few Clouds
Few Clouds
 Ανεμος από calm
Ανεμος: Απνοια
Θερμοκρασία: 19°C
Σημείο Δρόσου: 12°C
Υγρασία: 64%
Βαρόμετρο: 1016.6 hPa
Clouds: Few Clouds
Visibility: 16 km
Cloud details: Few Clouds 6096 m
2024/02/24 21:56 KSFO 242156Z 00000KT 10SM FEW200 19/12 A3002 RMK AO2 SLP165 T01890117 $
KE16 - San Martin, California, USA
Distance from station: ΑΝΑ 43km
Ενημερώθηκε: 24/02/2024 23:55
Αίθριος
Αίθριος
 Ανεμος από calm
Ανεμος: Απνοια
Θερμοκρασία: 23°C
Σημείο Δρόσου: 2°C
Υγρασία: 25%
Βαρόμετρο: 1016.6 hPa
Clouds: Αίθριος
Visibility: 16 km
2024/02/24 21:55 KE16 242155Z AUTO 00000KT 10SM CLR 23/02 A3002 RMK AO2 PWINO PNO
 
KWVI - Watsonville, California, USA
Distance from station: ΝΝΑ 44km
Ενημερώθηκε: 24/02/2024 23:53
Αίθριος
Αίθριος
 Ανεμος από varies
Ανεμος: varies 6 km/h
Θερμοκρασία: 23°C
Σημείο Δρόσου: 5°C
Υγρασία: 31%
Βαρόμετρο: 1016.3 hPa
Clouds: Αίθριος
Visibility: 16 km
2024/02/24 21:53 KWVI 242153Z AUTO VRB03KT 10SM CLR 23/05 A3001 RMK AO2 SLP160 T02280050
KHAF - Half Moon Bay, California, USA
Distance from station: ΔΒΔ 50km
Ενημερώθηκε: 24/02/2024 23:55
Haze, Αίθριος
Haze, Αίθριος
 Ανεμος από Δ
Ανεμος: Δ 9 km/h
Θερμοκρασία: 17°C
Σημείο Δρόσου: 10°C
Υγρασία: 64%
Βαρόμετρο: 1016.9 hPa
Περίληψη: Haze
Clouds: Αίθριος
Visibility: 10 km
2024/02/24 21:55 KHAF 242155Z AUTO 27005KT 6SM HZ CLR 17/10 A3003 RMK AO2
 
KHWD - Hayward, California, USA
Distance from station: Β 44km
Ενημερώθηκε: 24/02/2024 23:54
Αίθριος
Αίθριος
 Ανεμος από Δ
Ανεμος: Δ 11 km/h
Θερμοκρασία: 21°C
Σημείο Δρόσου: 10°C
Υγρασία: 50%
Βαρόμετρο: 1016.6 hPa
Clouds: Αίθριος
Visibility: 16 km
2024/02/24 21:54 KHWD 242154Z 27006KT 10SM CLR 21/10 A3002 RMK AO2 SLP174 T02060100
KLVK - Livermore, California, USA
Distance from station: ΒΒΑ 51km
Ενημερώθηκε: 24/02/2024 23:53
Αίθριος
Αίθριος
 Ανεμος από ΑΒΑ
Ανεμος: ΑΒΑ 22 km/h
Θερμοκρασία: 20°C
Σημείο Δρόσου: 8°C
Υγρασία: 46%
Βαρόμετρο: 1016.6 hPa
Clouds: Αίθριος
Visibility: 16 km
2024/02/24 21:53 KLVK 242153Z 07012KT 10SM CLR 20/08 A3002 RMK AO2 SLP165 T02000078